METAR Data

Data at: 1825 UTC 21 Nov 2018

METAR for:KPVD (Providence/Green Mem, RI, US)
Text:KPVD 211751Z 26016KT 10SM FEW035 BKN100 BKN130 04/M04 A2992 RMK AO2 SLP131 T00441039 10044 21006 56035
Temperature: 4.4°C ( 40°F)
Dewpoint: -3.9°C ( 25°F) [RH = 55%]
Pressure (altimeter):29.92 inches Hg (1013.3 mb) [Sea level pressure: 1013.1 mb]
Winds:from the W (260 degrees) at 18 MPH (16 knots; 8.2 m/s)
Visibility:10 or more sm (16+ km)
Ceiling:10000 feet AGL
Clouds: few clouds at 3500 feet AGL, broken clouds at 10000 feet AGL, broken clouds at 13000 feet AGL